createdAt,value
2022-08-12T00:00:34.905Z,15.91
2022-08-12T00:03:23.698Z,15.97
2022-08-12T00:06:10.188Z,15.88
2022-08-12T00:08:58.419Z,15.95
2022-08-12T00:11:45.812Z,15.84
2022-08-12T00:14:32.668Z,15.84
2022-08-12T00:17:18.500Z,15.89
2022-08-12T00:20:05.200Z,15.89
2022-08-12T00:22:59.398Z,15.80
2022-08-12T00:26:21.573Z,15.72
2022-08-12T00:29:09.085Z,15.62
2022-08-12T00:31:55.177Z,15.57
2022-08-12T00:34:41.490Z,15.59
2022-08-12T00:37:27.724Z,15.46
2022-08-12T00:40:15.063Z,15.43
2022-08-12T00:42:43.132Z,15.38
2022-08-12T00:45:11.174Z,15.35
2022-08-12T00:47:39.199Z,15.32
2022-08-12T00:50:07.611Z,15.36
2022-08-12T00:52:36.220Z,15.31
2022-08-12T00:55:06.067Z,15.30
2022-08-12T00:57:37.057Z,15.27
2022-08-12T01:00:09.943Z,15.29
2022-08-12T01:02:40.378Z,15.28
2022-08-12T01:05:34.827Z,15.28
2022-08-12T01:08:20.868Z,15.29
2022-08-12T01:11:08.267Z,15.31
2022-08-12T01:13:39.971Z,15.32
2022-08-12T01:16:09.823Z,15.31
2022-08-12T01:18:40.600Z,15.28
2022-08-12T01:21:19.426Z,15.21
2022-08-12T01:24:30.142Z,15.21
2022-08-12T01:27:01.404Z,15.16
2022-08-12T01:29:32.622Z,15.12
2022-08-12T01:32:05.572Z,15.11
2022-08-12T01:34:37.713Z,15.05
2022-08-12T01:37:09.433Z,15.03
2022-08-12T01:40:36.001Z,15.01
2022-08-12T01:42:52.126Z,15.00
2022-08-12T01:45:24.831Z,14.98
2022-08-12T01:48:17.078Z,14.84
2022-08-12T01:51:09.867Z,14.77
2022-08-12T01:54:05.835Z,14.76
2022-08-12T01:56:39.754Z,14.79
2022-08-12T01:59:28.597Z,14.73
2022-08-12T02:01:58.942Z,14.70
2022-08-12T02:05:01.701Z,14.71
2022-08-12T02:08:05.015Z,14.68
2022-08-12T02:10:55.599Z,14.68
2022-08-12T02:14:01.677Z,14.70
2022-08-12T02:16:46.505Z,14.69
2022-08-12T02:19:32.424Z,14.63
2022-08-12T02:22:28.320Z,14.62
2022-08-12T02:25:08.488Z,14.58
2022-08-12T02:27:41.582Z,14.58
2022-08-12T02:30:15.561Z,14.58
2022-08-12T02:32:44.841Z,14.51
2022-08-12T02:35:15.078Z,14.48
2022-08-12T02:37:43.858Z,14.41
2022-08-12T02:40:13.627Z,14.42
2022-08-12T02:42:51.216Z,14.37
2022-08-12T02:45:25.991Z,14.34
2022-08-12T02:48:01.394Z,14.33
2022-08-12T02:50:31.728Z,14.26
2022-08-12T02:52:59.636Z,14.24
2022-08-12T02:55:34.959Z,14.16
2022-08-12T02:58:12.346Z,14.13
2022-08-12T03:00:43.673Z,14.12
2022-08-12T03:03:13.259Z,14.12
2022-08-12T03:05:58.087Z,14.06
2022-08-12T03:08:35.335Z,14.00
2022-08-12T03:11:20.755Z,13.99
2022-08-12T03:13:58.135Z,13.99
2022-08-12T03:16:28.147Z,13.98
2022-08-12T03:18:55.342Z,14.00
2022-08-12T03:21:55.297Z,13.98
2022-08-12T03:24:17.584Z,14.02
2022-08-12T03:26:47.507Z,14.03
2022-08-12T03:29:16.559Z,14.02
2022-08-12T03:31:44.207Z,14.04
2022-08-12T03:34:14.461Z,14.08
2022-08-12T03:36:42.787Z,14.09
2022-08-12T03:39:14.409Z,14.11
2022-08-12T03:41:52.586Z,14.10
2022-08-12T03:44:50.043Z,14.05
2022-08-12T03:47:44.073Z,14.04
2022-08-12T03:50:31.037Z,14.09
2022-08-12T03:53:16.581Z,14.14
2022-08-12T03:56:02.352Z,14.14
2022-08-12T03:58:48.592Z,14.19
2022-08-12T04:01:16.240Z,14.20
2022-08-12T04:03:53.354Z,14.25
2022-08-12T04:06:34.295Z,14.30
2022-08-12T04:09:16.446Z,14.36
2022-08-12T04:12:04.388Z,14.40
2022-08-12T04:14:32.382Z,14.46
2022-08-12T04:17:01.005Z,14.52
2022-08-12T04:19:28.667Z,14.56
2022-08-12T04:22:02.224Z,14.60
2022-08-12T04:24:36.721Z,14.63
2022-08-12T04:27:10.734Z,14.68
2022-08-12T04:30:16.758Z,14.71
2022-08-12T04:32:28.064Z,14.77
2022-08-12T04:34:55.847Z,14.81
2022-08-12T04:37:23.386Z,14.87
2022-08-12T04:39:54.207Z,14.90
2022-08-12T04:42:22.184Z,14.96
2022-08-12T04:44:49.441Z,15.04
2022-08-12T04:47:17.151Z,15.12
2022-08-12T04:49:46.180Z,15.12
2022-08-12T04:52:13.499Z,15.19
2022-08-12T04:54:44.188Z,15.24
2022-08-12T04:57:11.696Z,15.33
2022-08-12T04:59:46.829Z,15.38
2022-08-12T05:02:20.467Z,15.47
2022-08-12T05:04:51.839Z,15.51
2022-08-12T05:07:20.304Z,15.54
2022-08-12T05:09:59.003Z,15.65
2022-08-12T05:12:37.919Z,15.69
2022-08-12T05:15:16.747Z,15.74
2022-08-12T05:17:46.453Z,15.84
2022-08-12T05:20:17.402Z,15.91
2022-08-12T05:22:45.370Z,16.00
2022-08-12T05:25:13.905Z,16.02
2022-08-12T05:27:40.899Z,16.12
2022-08-12T05:30:33.542Z,16.18
2022-08-12T05:33:05.809Z,16.32
2022-08-12T05:35:39.868Z,16.46
2022-08-12T05:38:26.165Z,16.70
2022-08-12T05:40:53.267Z,16.88
2022-08-12T05:43:20.536Z,17.12
2022-08-12T05:45:47.935Z,17.66
2022-08-12T05:48:19.099Z,17.43
2022-08-12T05:50:46.352Z,17.38
2022-08-12T05:53:13.510Z,17.35
2022-08-12T05:55:41.210Z,18.03
2022-08-12T05:58:08.225Z,18.04
2022-08-12T06:00:36.322Z,17.77
2022-08-12T06:03:04.866Z,17.66
2022-08-12T06:05:43.272Z,17.69
2022-08-12T06:08:22.256Z,18.05
2022-08-12T06:10:52.048Z,18.16
2022-08-12T06:13:28.274Z,18.26
2022-08-12T06:16:09.939Z,18.36
2022-08-12T06:18:40.331Z,18.44
2022-08-12T06:21:12.605Z,18.48
2022-08-12T06:23:42.722Z,18.63
2022-08-12T06:26:17.002Z,19.05
2022-08-12T06:28:46.217Z,19.25
2022-08-12T06:31:32.133Z,19.45
2022-08-12T06:35:23.460Z,19.61
2022-08-12T06:36:48.038Z,19.88
2022-08-12T06:39:16.810Z,21.21
2022-08-12T06:42:42.105Z,22.43
2022-08-12T06:44:50.648Z,23.59
2022-08-12T06:47:19.642Z,24.57
2022-08-12T06:49:48.643Z,25.58
2022-08-12T06:52:17.400Z,26.35
2022-08-12T06:54:46.982Z,27.47
2022-08-12T06:58:01.890Z,28.36
2022-08-12T07:00:01.816Z,28.02
2022-08-12T07:02:30.679Z,28.68
2022-08-12T07:04:59.480Z,29.40
2022-08-12T07:07:29.048Z,29.56
2022-08-12T07:10:05.680Z,30.22
2022-08-12T07:12:34.482Z,30.01
2022-08-12T07:15:03.680Z,30.29
2022-08-12T07:17:36.706Z,30.06
2022-08-12T07:20:09.929Z,30.97
2022-08-12T07:22:39.941Z,31.21
2022-08-12T07:25:37.907Z,31.17
2022-08-12T07:28:16.061Z,30.83
2022-08-12T07:30:45.112Z,30.80
2022-08-12T07:33:13.595Z,31.07
2022-08-12T07:35:48.419Z,31.70
2022-08-12T07:38:30.706Z,31.40
2022-08-12T07:41:02.758Z,31.88
2022-08-12T07:43:31.431Z,31.78
2022-08-12T07:46:02.918Z,32.34
2022-08-12T07:48:36.940Z,31.68
2022-08-12T07:51:04.245Z,31.95
2022-08-12T07:53:31.466Z,31.98
2022-08-12T07:56:00.694Z,32.05
2022-08-12T07:58:27.965Z,32.23
2022-08-12T08:00:57.793Z,31.98
2022-08-12T08:03:25.952Z,31.67
2022-08-12T08:05:54.050Z,31.79
2022-08-12T08:08:28.770Z,31.74
2022-08-12T08:11:18.466Z,32.21
2022-08-12T08:13:47.241Z,32.61
2022-08-12T08:16:15.359Z,32.67
2022-08-12T08:18:43.714Z,32.29
2022-08-12T08:21:11.197Z,32.21
2022-08-12T08:24:01.995Z,32.16
2022-08-12T08:26:34.474Z,33.50
2022-08-12T08:29:05.144Z,33.29
2022-08-12T08:31:32.180Z,33.75
2022-08-12T08:34:27.475Z,33.58
2022-08-12T08:36:47.254Z,32.66
2022-08-12T08:39:21.730Z,32.31
2022-08-12T08:42:13.895Z,32.27
2022-08-12T08:44:47.205Z,32.68
2022-08-12T08:47:22.032Z,33.44
2022-08-12T08:49:49.050Z,33.57
2022-08-12T08:52:39.731Z,33.79
2022-08-12T08:55:04.398Z,34.24
2022-08-12T08:57:43.459Z,33.74
2022-08-12T09:00:16.846Z,33.75
2022-08-12T09:02:49.481Z,32.30
2022-08-12T09:05:43.230Z,32.83
2022-08-12T09:08:23.163Z,33.22
2022-08-12T09:11:00.115Z,33.37
2022-08-12T09:14:10.404Z,33.12
2022-08-12T09:16:20.856Z,33.53
2022-08-12T09:18:52.196Z,33.86
2022-08-12T09:21:20.431Z,33.37
2022-08-12T09:23:59.322Z,32.71
2022-08-12T09:26:31.306Z,33.67
2022-08-12T09:29:12.127Z,33.31
2022-08-12T09:32:03.728Z,33.71
2022-08-12T09:34:33.875Z,33.95
2022-08-12T09:37:19.966Z,33.72
2022-08-12T09:40:03.304Z,33.63
2022-08-12T09:43:16.039Z,33.71
2022-08-12T09:46:20.663Z,34.02
2022-08-12T09:48:36.295Z,33.14
2022-08-12T09:51:16.708Z,33.51
2022-08-12T09:54:05.456Z,33.73
2022-08-12T09:57:02.888Z,33.54
2022-08-12T10:00:14.911Z,33.39
2022-08-12T10:02:42.675Z,33.30
2022-08-12T10:05:13.165Z,33.24
2022-08-12T10:07:40.980Z,33.12
2022-08-12T10:10:22.220Z,33.22
2022-08-12T10:13:13.486Z,33.14
2022-08-12T10:16:02.122Z,33.09
2022-08-12T10:18:35.305Z,32.85
2022-08-12T10:21:07.828Z,32.75
2022-08-12T10:23:39.827Z,32.73
2022-08-12T10:26:38.058Z,32.78
2022-08-12T10:30:40.711Z,32.49
2022-08-12T10:33:02.249Z,32.29
2022-08-12T10:35:14.056Z,32.44
2022-08-12T10:38:37.371Z,31.93
2022-08-12T10:40:34.292Z,31.84
2022-08-12T10:43:25.962Z,32.30
2022-08-12T10:45:58.330Z,30.47
2022-08-12T10:48:34.110Z,30.67
2022-08-12T10:52:04.112Z,31.40
2022-08-12T10:54:00.714Z,31.41
2022-08-12T10:56:34.954Z,31.24
2022-08-12T10:59:05.390Z,31.36
2022-08-12T11:04:19.741Z,31.31
2022-08-12T11:04:39.441Z,30.29
2022-08-12T11:08:37.037Z,30.30
2022-08-12T11:10:01.831Z,30.45
2022-08-12T11:12:54.932Z,29.60
2022-08-12T11:15:32.926Z,29.03
2022-08-12T11:18:17.829Z,28.82
2022-08-12T11:20:48.050Z,28.26
2022-08-12T11:23:33.989Z,28.13
2022-08-12T11:26:06.289Z,28.05
2022-08-12T11:28:37.110Z,27.86
2022-08-12T11:31:12.200Z,27.55
2022-08-12T11:34:06.719Z,27.72
2022-08-12T11:36:33.407Z,27.34
2022-08-12T11:39:06.812Z,27.61
2022-08-12T11:41:34.843Z,27.32
2022-08-12T11:44:33.345Z,27.25
2022-08-12T11:46:54.169Z,27.43
2022-08-12T11:49:31.602Z,27.66
2022-08-12T11:52:04.358Z,27.88
2022-08-12T11:54:50.821Z,28.20
2022-08-12T11:58:07.195Z,28.14
2022-08-12T12:02:55.081Z,28.11
2022-08-12T12:05:22.084Z,27.73
2022-08-12T12:08:37.560Z,27.72
2022-08-12T12:10:43.098Z,27.78
2022-08-12T12:13:11.588Z,27.97
2022-08-12T12:15:50.233Z,28.06
2022-08-12T12:18:30.910Z,28.06
2022-08-12T12:21:00.239Z,27.81
2022-08-12T12:23:29.609Z,28.03
2022-08-12T12:26:06.869Z,27.81
2022-08-12T12:28:39.351Z,28.02
2022-08-12T12:31:14.807Z,27.80
2022-08-12T12:33:58.309Z,27.82
2022-08-12T12:36:30.295Z,27.97
2022-08-12T12:39:00.208Z,28.14
2022-08-12T12:42:41.644Z,28.21
2022-08-12T12:44:30.325Z,27.96
2022-08-12T12:47:03.133Z,27.92
2022-08-12T12:49:30.356Z,27.90
2022-08-12T12:52:18.614Z,27.86
2022-08-12T12:54:53.058Z,28.05
2022-08-12T12:57:35.876Z,27.65
2022-08-12T13:00:20.574Z,27.18
2022-08-12T13:02:55.638Z,27.41
2022-08-12T13:05:28.028Z,27.47
2022-08-12T13:08:01.252Z,27.23
2022-08-12T13:10:36.572Z,27.54
2022-08-12T13:14:06.990Z,27.62
2022-08-12T13:15:53.905Z,27.64
2022-08-12T13:18:33.534Z,27.75
2022-08-12T13:21:02.437Z,27.70
2022-08-12T13:23:36.570Z,27.89
2022-08-12T13:26:14.321Z,27.76
2022-08-12T13:28:55.859Z,27.88
2022-08-12T13:31:25.577Z,27.81
2022-08-12T13:34:33.696Z,28.01
2022-08-12T13:36:42.264Z,28.10
2022-08-12T13:39:09.940Z,28.28
2022-08-12T13:41:37.793Z,28.30
2022-08-12T13:44:10.560Z,28.42
2022-08-12T13:46:38.868Z,28.26
2022-08-12T13:49:07.814Z,28.31
2022-08-12T13:51:41.335Z,28.32
2022-08-12T13:54:13.897Z,28.25
2022-08-12T13:56:50.056Z,28.18
2022-08-12T13:59:24.495Z,28.21
2022-08-12T14:01:56.832Z,28.29
2022-08-12T14:04:24.377Z,28.03
2022-08-12T14:06:52.043Z,27.66
2022-08-12T14:09:20.814Z,27.55
2022-08-12T14:11:58.406Z,27.69
2022-08-12T14:14:31.151Z,27.86
2022-08-12T14:17:05.474Z,27.80
2022-08-12T14:19:39.270Z,27.91
2022-08-12T14:22:20.214Z,28.00
2022-08-12T14:24:47.697Z,27.81
2022-08-12T14:28:02.447Z,27.53
2022-08-12T14:30:15.227Z,27.49
2022-08-12T14:32:45.320Z,27.29
2022-08-12T14:35:12.603Z,27.03
2022-08-12T14:37:57.436Z,26.76
2022-08-12T14:40:31.158Z,26.49
2022-08-12T14:42:59.008Z,26.32
2022-08-12T14:45:44.549Z,26.25
2022-08-12T14:48:24.161Z,26.20
2022-08-12T14:51:09.568Z,26.31
2022-08-12T14:56:59.387Z,26.50
2022-08-12T14:59:56.267Z,26.62
2022-08-12T15:02:25.968Z,26.66
2022-08-12T15:05:03.609Z,26.70
2022-08-12T15:07:50.303Z,26.64
2022-08-12T15:10:24.944Z,26.55
2022-08-12T15:12:59.171Z,26.53
2022-08-12T15:15:26.372Z,26.50
2022-08-12T15:18:02.064Z,26.47
2022-08-12T15:20:32.993Z,26.48
2022-08-12T15:23:17.977Z,26.46
2022-08-12T15:26:02.749Z,26.43
2022-08-12T15:28:35.390Z,26.35
2022-08-12T15:31:09.581Z,26.32
2022-08-12T15:33:57.105Z,26.37
2022-08-12T15:36:50.244Z,26.37
2022-08-12T15:39:16.962Z,26.41
2022-08-12T15:41:49.374Z,26.38
2022-08-12T15:44:37.710Z,26.30
2022-08-12T15:47:06.291Z,26.26
2022-08-12T15:49:43.425Z,26.28
2022-08-12T15:52:27.644Z,26.41
2022-08-12T15:54:58.490Z,26.43
2022-08-12T15:57:27.583Z,26.56
2022-08-12T16:00:06.479Z,26.65
2022-08-12T16:02:49.491Z,26.60
2022-08-12T16:06:11.145Z,26.61
2022-08-12T16:08:17.159Z,26.58
2022-08-12T16:10:47.784Z,26.52
2022-08-12T16:13:32.751Z,26.48
2022-08-12T16:16:22.883Z,26.41
2022-08-12T16:19:01.996Z,26.38
2022-08-12T16:21:51.147Z,26.37
2022-08-12T16:24:23.324Z,26.32
2022-08-12T16:26:54.041Z,26.30
2022-08-12T16:29:38.732Z,26.27
2022-08-12T16:32:24.520Z,26.24
2022-08-12T16:35:00.790Z,26.23
2022-08-12T16:38:25.817Z,26.11
2022-08-12T16:40:20.807Z,26.11
2022-08-12T16:42:54.062Z,26.02
2022-08-12T16:46:23.352Z,25.89
2022-08-12T16:48:36.167Z,25.71
2022-08-12T16:51:09.657Z,25.56
2022-08-12T16:53:44.330Z,25.52
2022-08-12T16:56:15.505Z,25.46
2022-08-12T16:58:47.350Z,25.44
2022-08-12T17:01:16.500Z,25.31
2022-08-12T17:03:59.670Z,25.15
2022-08-12T17:06:29.513Z,24.97
2022-08-12T17:09:03.009Z,24.97
2022-08-12T17:11:31.261Z,24.88
2022-08-12T17:14:01.773Z,24.73
2022-08-12T17:16:30.077Z,24.68
2022-08-12T17:19:03.081Z,24.59
2022-08-12T17:21:41.046Z,24.49
2022-08-12T17:24:21.514Z,24.35
2022-08-12T17:26:54.185Z,24.21
2022-08-12T17:29:31.991Z,24.03
2022-08-12T17:32:11.209Z,23.92
2022-08-12T17:34:57.896Z,23.79
2022-08-12T17:37:27.019Z,23.68
2022-08-12T17:40:10.829Z,23.62
2022-08-12T17:42:47.571Z,23.61
2022-08-12T17:45:19.930Z,23.49
2022-08-12T17:48:04.979Z,23.34
2022-08-12T17:50:33.552Z,23.15
2022-08-12T17:53:03.290Z,23.02
2022-08-12T17:55:43.118Z,22.94
2022-08-12T17:58:15.377Z,22.85
2022-08-12T18:00:47.541Z,22.77
2022-08-12T18:04:04.447Z,22.67
2022-08-12T18:06:08.851Z,22.63
2022-08-12T18:08:43.573Z,22.50
2022-08-12T18:12:04.809Z,22.34
2022-08-12T18:14:29.071Z,22.13
2022-08-12T18:17:00.434Z,21.97
2022-08-12T18:19:34.097Z,21.88
2022-08-12T18:22:22.129Z,21.70
2022-08-12T18:25:03.955Z,21.61
2022-08-12T18:27:47.144Z,21.51
2022-08-12T18:30:20.699Z,21.40
2022-08-12T18:33:04.985Z,21.29
2022-08-12T18:35:47.927Z,21.24
2022-08-12T18:38:25.367Z,21.26
2022-08-12T18:41:23.448Z,21.24
2022-08-12T18:44:08.153Z,21.17
2022-08-12T18:47:01.523Z,21.22
2022-08-12T18:49:39.145Z,21.21
2022-08-12T18:52:11.269Z,21.17
2022-08-12T18:54:49.277Z,21.12
2022-08-12T18:58:06.019Z,21.07
2022-08-12T19:00:21.314Z,21.10
2022-08-12T19:02:53.265Z,21.17
2022-08-12T19:05:54.525Z,21.16
2022-08-12T19:08:13.308Z,21.15
2022-08-12T19:10:42.733Z,21.20
2022-08-12T19:13:38.248Z,21.26
2022-08-12T19:16:11.289Z,21.26
2022-08-12T19:18:41.048Z,21.23
2022-08-12T19:21:16.936Z,21.20
2022-08-12T19:24:08.213Z,21.21
2022-08-12T19:26:36.688Z,21.14
2022-08-12T19:29:05.397Z,21.11
2022-08-12T19:31:56.093Z,21.09
2022-08-12T19:37:27.063Z,20.94
2022-08-12T19:40:09.841Z,20.99
2022-08-12T19:42:53.526Z,20.95
2022-08-12T19:45:22.250Z,20.90
2022-08-12T19:47:49.671Z,20.90
2022-08-12T19:50:20.220Z,20.88
2022-08-12T19:52:51.211Z,20.80
2022-08-12T19:55:22.594Z,20.65
2022-08-12T19:58:02.439Z,20.57
2022-08-12T20:00:34.691Z,20.53
2022-08-12T20:03:05.461Z,20.46
2022-08-12T20:06:05.171Z,20.42
2022-08-12T20:08:34.236Z,20.40
2022-08-12T20:12:14.316Z,20.41
2022-08-12T20:13:58.039Z,20.35
2022-08-12T20:16:51.670Z,20.30
2022-08-12T20:19:20.918Z,20.25
2022-08-12T20:21:51.001Z,20.20
2022-08-12T20:24:19.130Z,20.12
2022-08-12T20:26:48.177Z,20.12
2022-08-12T20:29:18.496Z,20.04
2022-08-12T20:31:52.887Z,20.01
2022-08-12T20:34:20.750Z,19.95
2022-08-12T20:36:48.006Z,19.94
2022-08-12T20:39:52.467Z,19.91
2022-08-12T20:42:18.788Z,19.84
2022-08-12T20:44:47.222Z,19.70
2022-08-12T20:47:19.977Z,19.71
2022-08-12T20:49:55.617Z,19.70
2022-08-12T20:52:34.005Z,19.69
2022-08-12T20:55:05.935Z,19.65
2022-08-12T20:58:02.705Z,19.60
2022-08-12T21:00:35.254Z,19.52
2022-08-12T21:03:21.583Z,19.54
2022-08-12T21:06:13.505Z,19.61
2022-08-12T21:08:45.459Z,19.58
2022-08-12T21:11:14.106Z,19.57
2022-08-12T21:13:42.270Z,19.50
2022-08-12T21:16:10.393Z,19.54
2022-08-12T21:18:38.367Z,19.55
2022-08-12T21:21:06.740Z,19.47
2022-08-12T21:23:56.594Z,19.44
2022-08-12T21:26:32.909Z,19.57
2022-08-12T21:29:04.254Z,19.68
2022-08-12T21:32:36.838Z,19.69
2022-08-12T21:34:29.183Z,19.65
2022-08-12T21:37:26.507Z,19.64
2022-08-12T21:39:56.302Z,19.66
2022-08-12T21:42:27.943Z,19.67
2022-08-12T21:45:47.693Z,19.69
2022-08-12T21:47:47.494Z,19.67
2022-08-12T21:50:20.518Z,19.64
2022-08-12T21:52:49.180Z,19.58
2022-08-12T21:55:20.334Z,19.57
2022-08-12T21:57:53.326Z,19.59
2022-08-12T22:00:31.782Z,19.64
2022-08-12T22:04:03.622Z,19.59
2022-08-12T22:06:30.942Z,19.63
2022-08-12T22:09:16.144Z,19.70
2022-08-12T22:11:56.435Z,19.72
2022-08-12T22:14:29.533Z,19.64
2022-08-12T22:16:58.363Z,19.53
2022-08-12T22:19:26.970Z,19.50
2022-08-12T22:21:56.298Z,19.50
2022-08-12T22:24:30.285Z,19.47
2022-08-12T22:27:14.347Z,19.47
2022-08-12T22:30:07.769Z,19.48
2022-08-12T22:32:50.792Z,19.46
2022-08-12T22:35:56.575Z,19.44
2022-08-12T22:38:24.294Z,19.35
2022-08-12T22:41:01.092Z,19.43
2022-08-12T22:44:00.815Z,19.45
2022-08-12T22:47:01.528Z,19.49
2022-08-12T22:49:36.743Z,19.49
2022-08-12T22:52:18.584Z,19.44
2022-08-12T22:55:02.871Z,19.40
2022-08-12T22:57:49.390Z,19.36
2022-08-12T23:00:24.631Z,19.31
2022-08-12T23:03:00.839Z,19.27
2022-08-12T23:05:36.725Z,19.23
2022-08-12T23:08:30.130Z,19.20
2022-08-12T23:11:05.877Z,19.17
2022-08-12T23:13:55.373Z,19.12
2022-08-12T23:16:31.911Z,19.06
2022-08-12T23:19:22.826Z,18.97
2022-08-12T23:22:06.278Z,18.94
2022-08-12T23:24:55.564Z,18.89
2022-08-12T23:27:52.274Z,18.87
2022-08-12T23:30:32.073Z,18.79
2022-08-12T23:33:13.581Z,18.75
2022-08-12T23:36:02.369Z,18.71
2022-08-12T23:38:34.719Z,18.68
2022-08-12T23:41:03.939Z,18.68
2022-08-12T23:43:39.822Z,18.66
2022-08-12T23:46:19.338Z,18.69
2022-08-12T23:48:51.997Z,18.71
2022-08-12T23:51:24.601Z,18.70
2022-08-12T23:53:56.272Z,18.71
2022-08-12T23:56:27.178Z,18.82
2022-08-12T23:58:58.413Z,18.86
